createdAt,value
2018-08-09T00:04:35.940Z,20.60
2018-08-09T00:10:40.801Z,20.50
2018-08-09T00:16:45.577Z,20.50
2018-08-09T00:22:50.238Z,20.50
2018-08-09T00:28:54.992Z,20.40
2018-08-09T00:34:59.631Z,20.30
2018-08-09T00:41:04.648Z,20.20
2018-08-09T00:47:09.826Z,20.20
2018-08-09T00:53:14.554Z,20.00
2018-08-09T00:59:19.580Z,20.00
2018-08-09T01:05:24.305Z,19.80
2018-08-09T01:11:29.288Z,19.80
2018-08-09T01:17:34.481Z,19.80
2018-08-09T01:23:39.158Z,19.70
2018-08-09T01:29:43.870Z,19.60
2018-08-09T01:35:48.847Z,19.40
2018-08-09T01:42:10.468Z,19.30
2018-08-09T01:48:15.243Z,19.20
2018-08-09T01:54:19.903Z,19.10
2018-08-09T02:00:24.599Z,19.10
2018-08-09T02:06:29.596Z,19.00
2018-08-09T02:12:34.303Z,19.00
2018-08-09T02:18:39.531Z,18.90
2018-08-09T02:24:44.266Z,18.80
2018-08-09T02:30:48.992Z,18.80
2018-08-09T02:36:53.767Z,18.80
2018-08-09T02:42:58.543Z,18.80
2018-08-09T02:49:03.310Z,18.70
2018-08-09T02:55:08.450Z,18.70
2018-08-09T03:01:13.203Z,18.50
2018-08-09T03:07:18.236Z,18.50
2018-08-09T03:13:22.974Z,18.40
2018-08-09T03:19:27.659Z,18.50
2018-08-09T03:25:32.386Z,18.50
2018-08-09T03:31:37.136Z,18.40
2018-08-09T03:37:41.818Z,18.40
2018-08-09T03:43:46.805Z,18.40
2018-08-09T03:49:51.470Z,18.30
2018-08-09T03:55:56.496Z,18.20
2018-08-09T04:02:01.469Z,18.20
2018-08-09T04:08:06.431Z,18.20
2018-08-09T04:14:11.530Z,18.20
2018-08-09T04:20:16.319Z,18.10
2018-08-09T04:26:21.234Z,18.10
2018-08-09T04:32:25.876Z,18.10
2018-08-09T04:38:30.968Z,18.20
2018-08-09T04:44:36.078Z,18.30
2018-08-09T04:50:40.859Z,18.40
2018-08-09T04:56:45.542Z,18.50
2018-08-09T05:02:50.433Z,18.70
2018-08-09T05:08:55.099Z,19.00
2018-08-09T05:15:00.489Z,19.20
2018-08-09T05:21:05.510Z,19.40
2018-08-09T05:27:10.284Z,19.70
2018-08-09T05:33:15.089Z,20.00
2018-08-09T05:39:19.735Z,20.10
2018-08-09T05:45:24.428Z,20.00
2018-08-09T05:51:29.102Z,19.80
2018-08-09T05:57:34.373Z,19.80
2018-08-09T06:03:39.120Z,19.80
2018-08-09T06:09:43.746Z,20.30
2018-08-09T06:15:48.483Z,20.80
2018-08-09T06:21:53.266Z,21.50
2018-08-09T06:27:57.924Z,22.00
2018-08-09T06:34:02.814Z,22.50
2018-08-09T06:40:12.906Z,22.50
2018-08-09T06:46:17.586Z,22.70
2018-08-09T06:52:22.316Z,22.80
2018-08-09T06:58:27.054Z,22.90
2018-08-09T07:04:32.867Z,23.10
2018-08-09T07:10:37.659Z,23.30
2018-08-09T07:16:42.488Z,23.60
2018-08-09T07:22:47.998Z,24.10
2018-08-09T07:28:53.044Z,24.30
2018-08-09T07:34:57.805Z,24.40
2018-08-09T07:41:04.871Z,24.70
2018-08-09T07:47:09.847Z,25.30
2018-08-09T07:53:14.624Z,25.50
2018-08-09T07:59:19.353Z,25.90
2018-08-09T08:05:24.049Z,25.90
2018-08-09T08:11:28.784Z,26.20
2018-08-09T08:17:33.712Z,26.50
2018-08-09T08:23:38.491Z,27.20
2018-08-09T08:29:43.185Z,27.90
2018-08-09T08:35:47.852Z,28.30
2018-08-09T08:41:52.585Z,28.70
2018-08-09T08:47:57.532Z,29.20
2018-08-09T08:54:03.311Z,29.60
2018-08-09T09:00:10.676Z,29.90
2018-08-09T09:06:15.448Z,30.50
2018-08-09T09:12:20.194Z,30.90
2018-08-09T09:18:25.079Z,31.30
2018-08-09T09:24:30.337Z,31.60
2018-08-09T09:30:35.703Z,31.80
2018-08-09T09:36:40.462Z,32.30
2018-08-09T09:42:45.192Z,31.70
2018-08-09T09:48:49.928Z,31.30
2018-08-09T09:54:54.654Z,31.10
2018-08-09T10:01:04.705Z,31.40
2018-08-09T10:07:09.453Z,31.50
2018-08-09T10:13:14.181Z,32.10
2018-08-09T10:19:18.904Z,32.90
2018-08-09T10:25:23.583Z,32.70
2018-08-09T10:31:28.276Z,32.70
2018-08-09T10:37:34.112Z,32.30
2018-08-09T10:43:38.785Z,33.20
2018-08-09T10:49:43.509Z,33.30
2018-08-09T10:55:48.215Z,33.60
2018-08-09T11:01:52.979Z,34.50
2018-08-09T11:07:57.766Z,35.50
2018-08-09T11:14:03.119Z,35.80
2018-08-09T11:20:08.119Z,36.10
2018-08-09T11:26:12.835Z,36.90
2018-08-09T11:32:17.602Z,37.40
2018-08-09T11:38:22.535Z,38.10
2018-08-09T11:44:27.315Z,38.20
2018-08-09T11:50:32.002Z,38.70
2018-08-09T11:56:36.956Z,39.30
2018-08-09T12:02:41.667Z,39.30
2018-08-09T12:08:46.438Z,39.70
2018-08-09T12:14:51.180Z,39.20
2018-08-09T12:20:56.385Z,39.20
2018-08-09T12:27:01.145Z,38.30
2018-08-09T12:33:06.149Z,38.80
2018-08-09T12:39:12.821Z,39.00
2018-08-09T12:45:18.362Z,38.90
2018-08-09T12:51:23.150Z,40.60
2018-08-09T12:57:27.823Z,40.60
2018-08-09T13:03:32.686Z,39.00
2018-08-09T13:09:37.486Z,39.80
2018-08-09T13:15:42.246Z,42.20
2018-08-09T13:21:47.084Z,40.90
2018-08-09T13:27:51.802Z,39.30
2018-08-09T13:33:56.727Z,37.90
2018-08-09T13:40:02.921Z,37.20
2018-08-09T13:46:08.114Z,37.10
2018-08-09T13:52:13.336Z,38.90
2018-08-09T13:58:18.257Z,40.50
2018-08-09T14:04:23.035Z,39.60
2018-08-09T14:10:27.755Z,41.10
2018-08-09T14:16:33.565Z,41.50
2018-08-09T14:22:38.479Z,40.00
2018-08-09T14:28:43.209Z,37.80
2018-08-09T14:34:47.990Z,36.50
2018-08-09T14:40:52.709Z,35.50
2018-08-09T14:46:57.475Z,34.60
2018-08-09T14:53:02.602Z,33.50
2018-08-09T14:59:07.393Z,33.00
2018-08-09T15:05:12.079Z,31.90
2018-08-09T15:11:16.700Z,29.80
2018-08-09T15:17:21.381Z,29.00
2018-08-09T15:23:26.221Z,28.80
2018-08-09T15:29:31.124Z,28.70
2018-08-09T15:35:36.145Z,28.00
2018-08-09T15:41:41.577Z,27.10
2018-08-09T15:47:46.897Z,24.30
2018-08-09T15:53:51.564Z,22.80
2018-08-09T15:59:56.291Z,21.80
2018-08-09T16:06:02.545Z,21.50
2018-08-09T16:12:07.461Z,21.40
2018-08-09T16:18:12.241Z,21.40
2018-08-09T16:24:17.023Z,21.40
2018-08-09T16:30:25.049Z,21.20
2018-08-09T16:36:29.960Z,21.10
2018-08-09T16:42:35.128Z,21.20
2018-08-09T16:48:39.980Z,21.30
2018-08-09T16:54:44.824Z,21.20
2018-08-09T17:00:49.883Z,21.20
2018-08-09T17:06:54.767Z,21.20
2018-08-09T17:12:59.612Z,21.10
2018-08-09T17:19:04.376Z,21.10
2018-08-09T17:25:10.679Z,21.20
2018-08-09T17:31:15.437Z,22.10
2018-08-09T17:37:20.296Z,22.90
2018-08-09T17:43:25.252Z,23.90
2018-08-09T17:49:30.240Z,24.90
2018-08-09T17:55:35.371Z,25.90
2018-08-09T18:01:40.117Z,25.40
2018-08-09T18:07:44.849Z,24.20
2018-08-09T18:13:49.937Z,23.30
2018-08-09T18:19:54.809Z,22.60
2018-08-09T18:25:59.837Z,22.00
2018-08-09T18:32:05.061Z,21.70
2018-08-09T18:38:10.289Z,21.50
2018-08-09T18:44:15.348Z,21.40
2018-08-09T18:50:22.489Z,21.30
2018-08-09T18:56:27.593Z,21.30
2018-08-09T19:02:32.465Z,21.30
2018-08-09T19:08:37.212Z,21.20
2018-08-09T19:14:41.992Z,21.00
2018-08-09T19:20:46.763Z,20.80
2018-08-09T19:26:51.555Z,20.70
2018-08-09T19:32:56.642Z,20.60
2018-08-09T19:39:01.572Z,20.60
2018-08-09T19:45:11.210Z,20.60
2018-08-09T19:51:16.093Z,20.60
2018-08-09T19:57:20.974Z,20.60
2018-08-09T20:03:26.118Z,20.60
2018-08-09T20:09:31.034Z,20.60
2018-08-09T20:15:35.819Z,20.60
2018-08-09T20:21:40.642Z,20.80
2018-08-09T20:27:46.056Z,20.80
2018-08-09T20:33:50.741Z,20.90
2018-08-09T20:39:55.479Z,21.00
2018-08-09T20:46:00.609Z,21.00
2018-08-09T20:52:06.484Z,21.00
2018-08-09T20:58:11.298Z,21.00
2018-08-09T21:04:16.259Z,20.90
2018-08-09T21:10:21.288Z,21.00
2018-08-09T21:16:26.046Z,21.00
2018-08-09T21:22:31.548Z,21.00
2018-08-09T21:28:36.325Z,20.90
2018-08-09T21:34:41.182Z,20.90
2018-08-09T21:40:45.979Z,20.90
2018-08-09T21:46:50.662Z,20.80
2018-08-09T21:52:55.376Z,20.60
2018-08-09T21:59:00.202Z,20.70
2018-08-09T22:05:10.306Z,20.60
2018-08-09T22:11:20.368Z,20.60
2018-08-09T22:17:30.660Z,20.80
2018-08-09T22:23:41.232Z,20.90
2018-08-09T22:29:45.959Z,20.80
2018-08-09T22:35:51.160Z,20.80
2018-08-09T22:41:55.847Z,20.80
2018-08-09T22:48:01.191Z,20.70
2018-08-09T22:54:06.610Z,20.60
2018-08-09T23:00:24.480Z,20.50
2018-08-09T23:06:31.841Z,20.50
2018-08-09T23:12:37.069Z,20.40
2018-08-09T23:18:41.856Z,20.50
2018-08-09T23:24:46.659Z,20.50
2018-08-09T23:30:51.318Z,20.50
2018-08-09T23:36:56.011Z,20.50
2018-08-09T23:43:01.107Z,20.40
2018-08-09T23:49:06.484Z,20.40
2018-08-09T23:55:18.170Z,20.40
